Time;durP1;ratioP1;P1;durP2;ratioP2;P2;SDS_P1;SDS_P2;PMS_P1;PMS_P2;Temp;Humidity;BMP_temperature;BMP_pressure;BME280_temperature;BME280_humidity;BME280_pressure;Samples;Min_cycle;Max_cycle;Signal;HPM_P1;HPM_P2
2024/03/15 00:00:50;;;;;;;17.83;12.65;;;9.10;54.20;;;;;;4959201;28;20043;-74
2024/03/15 00:03:16;;;;;;;17.42;12.52;;;9.10;54.20;;;;;;4963150;28;21429;-74
2024/03/15 00:05:43;;;;;;;15.40;12.20;;;9.00;54.20;;;;;;4962554;28;20126;-76
2024/03/15 00:08:09;;;;;;;18.63;13.55;;;9.00;54.20;;;;;;4963141;28;20648;-75
2024/03/15 00:10:35;;;;;;;17.23;12.95;;;9.00;54.20;;;;;;4963071;28;20121;-75
2024/03/15 00:13:03;;;;;;;17.75;12.25;;;9.00;54.30;;;;;;4976669;28;20122;-75
2024/03/15 00:15:32;;;;;;;17.45;12.77;;;9.00;54.30;;;;;;4962352;28;20046;-74
2024/03/15 00:17:58;;;;;;;15.68;11.90;;;9.00;54.30;;;;;;4961375;28;20055;-72
2024/03/15 00:20:24;;;;;;;18.33;12.55;;;9.00;54.30;;;;;;4961242;28;20134;-72
2024/03/15 00:22:50;;;;;;;17.45;13.00;;;8.90;54.40;;;;;;4962774;28;20125;-72
2024/03/15 00:25:19;;;;;;;18.17;12.80;;;8.90;54.40;;;;;;4965037;28;20042;-71
2024/03/15 00:27:45;;;;;;;18.45;13.43;;;8.90;54.40;;;;;;4960635;28;20043;-72
2024/03/15 00:30:12;;;;;;;16.00;12.50;;;8.90;54.30;;;;;;4961061;28;20033;-75
2024/03/15 00:32:39;;;;;;;17.13;12.90;;;8.90;54.40;;;;;;4958992;28;20042;-73
2024/03/15 00:35:05;;;;;;;17.40;13.02;;;8.90;54.40;;;;;;4961738;28;20035;-73
2024/03/15 00:37:31;;;;;;;17.95;13.48;;;8.90;54.30;;;;;;4961097;28;20031;-73
2024/03/15 00:39:58;;;;;;;16.85;13.15;;;8.90;54.40;;;;;;4960216;28;20081;-72
2024/03/15 00:42:24;;;;;;;17.05;13.30;;;8.90;54.30;;;;;;4962981;28;20046;-72
2024/03/15 00:44:50;;;;;;;19.45;13.82;;;8.80;54.30;;;;;;4961160;28;20034;-72
2024/03/15 00:47:16;;;;;;;21.30;13.95;;;8.80;54.30;;;;;;4961472;28;21087;-72
2024/03/15 00:49:42;;;;;;;18.63;13.25;;;8.80;54.50;;;;;;4962645;28;20035;-72
2024/03/15 00:52:08;;;;;;;17.88;13.63;;;8.80;54.30;;;;;;4961878;28;20125;-72
2024/03/15 00:54:34;;;;;;;17.65;14.20;;;8.80;54.40;;;;;;4961789;28;20039;-72
2024/03/15 00:57:01;;;;;;;17.45;13.88;;;8.80;54.40;;;;;;4963607;28;20108;-72
2024/03/15 00:59:27;;;;;;;17.58;13.55;;;8.80;54.50;;;;;;4964484;28;20139;-72
2024/03/15 01:01:53;;;;;;;16.23;13.50;;;8.80;54.40;;;;;;4966901;28;20464;-74
2024/03/15 01:04:19;;;;;;;19.48;14.05;;;8.80;54.40;;;;;;4964612;28;20113;-72
2024/03/15 01:06:45;;;;;;;17.25;13.25;;;8.80;54.70;;;;;;4965774;28;20041;-74
2024/03/15 01:09:13;;;;;;;21.05;14.73;;;8.70;54.40;;;;;;4964397;28;20030;-74
2024/03/15 01:11:39;;;;;;;18.48;14.07;;;8.70;54.40;;;;;;4964033;28;20027;-73
2024/03/15 01:14:05;;;;;;;19.63;14.02;;;8.70;54.50;;;;;;4964253;28;20553;-73
2024/03/15 01:16:31;;;;;;;18.30;14.68;;;8.70;54.40;;;;;;4965067;28;20038;-74
2024/03/15 01:18:58;;;;;;;17.95;13.98;;;8.70;54.50;;;;;;4964236;28;20049;-72
2024/03/15 01:21:26;;;;;;;18.83;13.18;;;8.70;54.40;;;;;;4965345;28;20042;-72
2024/03/15 01:23:52;;;;;;;19.45;14.63;;;8.60;54.40;;;;;;4965449;28;20102;-72
2024/03/15 01:26:18;;;;;;;18.67;15.00;;;8.60;54.40;;;;;;4968035;28;20035;-72
2024/03/15 01:28:44;;;;;;;17.95;14.15;;;8.60;54.40;;;;;;4964166;28;20031;-72
2024/03/15 01:31:10;;;;;;;17.35;13.93;;;8.60;54.50;;;;;;4963782;28;20090;-72
2024/03/15 01:33:36;;;;;;;19.60;14.38;;;8.60;54.40;;;;;;4965313;28;20039;-73
2024/03/15 01:36:02;;;;;;;18.23;14.20;;;8.60;54.60;;;;;;4964308;28;20041;-73
2024/03/15 01:38:31;;;;;;;18.52;14.60;;;8.60;54.50;;;;;;4964915;28;20111;-73
2024/03/15 01:40:57;;;;;;;20.90;14.80;;;8.60;54.70;;;;;;4961818;28;20066;-72
2024/03/15 01:43:23;;;;;;;19.70;15.18;;;8.50;54.60;;;;;;4964197;28;20109;-72
2024/03/15 01:45:50;;;;;;;18.70;14.45;;;8.50;54.60;;;;;;4964055;28;20059;-72
2024/03/15 01:48:17;;;;;;;19.90;14.77;;;8.50;54.60;;;;;;4964232;28;20986;-72
2024/03/15 01:50:43;;;;;;;18.27;14.82;;;8.50;54.70;;;;;;4962241;28;20157;-73
2024/03/15 01:53:11;;;;;;;18.55;14.10;;;8.50;54.60;;;;;;4964390;28;21045;-72
2024/03/15 01:55:37;;;;;;;19.15;14.75;;;8.50;54.60;;;;;;4965445;28;20514;-71
2024/03/15 01:58:04;;;;;;;19.70;14.38;;;8.50;54.70;;;;;;4963671;28;20486;-73
2024/03/15 02:00:30;;;;;;;17.75;14.60;;;8.50;54.60;;;;;;4963381;28;20039;-72
2024/03/15 02:02:56;;;;;;;19.88;15.50;;;8.50;54.60;;;;;;4966087;28;21214;-73
2024/03/15 02:05:23;;;;;;;18.88;14.98;;;8.50;54.70;;;;;;4961239;28;20153;-73
2024/03/15 02:07:50;;;;;;;19.48;15.18;;;8.40;54.70;;;;;;4964106;28;20038;-73
2024/03/15 02:10:16;;;;;;;21.10;15.50;;;8.40;54.70;;;;;;4961940;28;20078;-73
2024/03/15 02:12:42;;;;;;;20.02;15.05;;;8.40;54.80;;;;;;4963872;28;20055;-73
2024/03/15 02:15:08;;;;;;;17.27;14.38;;;8.40;54.70;;;;;;4963622;28;20038;-73
2024/03/15 02:17:42;;;;;;;21.20;16.15;;;8.40;54.70;;;;;;4963047;28;20050;-73
2024/03/15 02:20:11;;;;;;;19.35;15.65;;;8.40;54.70;;;;;;4962570;28;20035;-73
2024/03/15 02:22:39;;;;;;;21.00;15.45;;;8.40;54.90;;;;;;4963679;28;20093;-73
2024/03/15 02:25:07;;;;;;;17.50;14.65;;;8.40;54.80;;;;;;4949703;28;20047;-73
2024/03/15 02:27:33;;;;;;;19.80;15.07;;;8.40;54.80;;;;;;4962230;28;20035;-73
2024/03/15 02:30:00;;;;;;;19.80;15.15;;;8.40;54.80;;;;;;4965270;28;20058;-72
2024/03/15 02:32:26;;;;;;;20.90;15.48;;;8.40;55.00;;;;;;4978500;28;20086;-72
2024/03/15 02:34:53;;;;;;;20.27;15.85;;;8.40;54.90;;;;;;4963906;28;20682;-72
2024/03/15 02:37:19;;;;;;;20.95;16.13;;;8.40;54.90;;;;;;4963219;28;20055;-72
2024/03/15 02:39:46;;;;;;;19.30;14.85;;;8.30;54.90;;;;;;4962256;28;20031;-74
2024/03/15 02:42:12;;;;;;;22.05;15.82;;;8.30;55.00;;;;;;4961647;28;20027;-74
2024/03/15 02:44:38;;;;;;;22.73;16.10;;;8.30;55.00;;;;;;4963414;28;20045;-73
2024/03/15 02:47:05;;;;;;;21.40;16.70;;;8.30;54.90;;;;;;4961822;28;20089;-73
2024/03/15 02:49:31;;;;;;;20.27;15.90;;;8.30;55.00;;;;;;4961887;28;20026;-73
2024/03/15 02:51:57;;;;;;;20.85;15.57;;;8.30;55.00;;;;;;4965410;28;20035;-72
2024/03/15 02:54:28;;;;;;;21.40;16.85;;;8.30;55.00;;;;;;4964582;28;20035;-73
2024/03/15 02:56:54;;;;;;;22.77;16.45;;;8.20;55.10;;;;;;4962474;28;20027;-73
2024/03/15 02:59:21;;;;;;;22.08;16.05;;;8.30;55.30;;;;;;4963418;28;21110;-73
2024/03/15 03:01:47;;;;;;;21.02;16.85;;;8.20;55.00;;;;;;4961735;28;20180;-72
2024/03/15 03:04:14;;;;;;;21.05;16.13;;;8.20;55.10;;;;;;4963001;28;20078;-72
2024/03/15 03:06:42;;;;;;;21.42;15.73;;;8.20;55.20;;;;;;4961301;28;20122;-71
2024/03/15 03:09:09;;;;;;;20.10;15.85;;;8.20;55.20;;;;;;4962214;28;20031;-72
2024/03/15 03:11:36;;;;;;;21.45;16.33;;;8.20;55.00;;;;;;4962505;28;20117;-73
2024/03/15 03:14:04;;;;;;;21.83;17.20;;;8.20;55.00;;;;;;4959983;28;20042;-72
2024/03/15 03:16:34;;;;;;;20.85;16.83;;;8.20;55.00;;;;;;4960671;28;20068;-73
2024/03/15 03:19:01;;;;;;;21.70;16.73;;;8.20;55.10;;;;;;4960686;28;20047;-72
2024/03/15 03:21:27;;;;;;;19.55;15.48;;;8.20;55.20;;;;;;4962478;28;20149;-72
2024/03/15 03:24:00;;;;;;;21.52;16.35;;;8.20;55.20;;;;;;4964355;28;20125;-73
2024/03/15 03:26:29;;;;;;;21.15;16.23;;;8.10;55.20;;;;;;4961857;28;20046;-73
2024/03/15 03:28:56;;;;;;;23.33;17.23;;;8.10;55.20;;;;;;4962189;28;20035;-73
2024/03/15 03:31:22;;;;;;;20.77;15.77;;;8.10;55.10;;;;;;4962021;28;20042;-72
2024/03/15 03:33:48;;;;;;;20.92;16.23;;;8.10;55.20;;;;;;4961750;28;20028;-72
2024/03/15 03:36:14;;;;;;;22.88;16.58;;;8.10;55.20;;;;;;4964079;28;20406;-72
2024/03/15 03:38:41;;;;;;;21.17;16.65;;;8.10;55.20;;;;;;4964315;28;20027;-73
2024/03/15 03:41:08;;;;;;;23.75;17.38;;;8.10;55.20;;;;;;4959657;28;20110;-73
2024/03/15 03:43:34;;;;;;;21.80;16.45;;;8.10;55.20;;;;;;4962444;28;20045;-72
2024/03/15 03:46:00;;;;;;;22.27;17.08;;;8.10;55.20;;;;;;4959666;28;20493;-72
2024/03/15 03:48:26;;;;;;;20.80;15.95;;;8.10;55.20;;;;;;4961382;28;20027;-73
2024/03/15 03:50:52;;;;;;;21.48;16.45;;;8.00;55.40;;;;;;4962222;28;20027;-73
2024/03/15 03:53:20;;;;;;;20.42;16.35;;;8.00;55.20;;;;;;4960930;28;20050;-76
2024/03/15 03:55:46;;;;;;;20.95;15.80;;;8.10;55.40;;;;;;4978301;28;20031;-73
2024/03/15 03:58:12;;;;;;;21.42;16.20;;;8.00;55.30;;;;;;4961008;28;20049;-73
2024/03/15 04:00:39;;;;;;;20.75;16.02;;;8.00;55.50;;;;;;4960253;28;20051;-74
2024/03/15 04:03:05;;;;;;;20.95;15.45;;;8.00;55.60;;;;;;4961703;28;20031;-74
2024/03/15 04:05:31;;;;;;;24.40;16.73;;;8.00;55.40;;;;;;4961633;28;20038;-73
2024/03/15 04:07:57;;;;;;;21.75;16.35;;;8.00;55.50;;;;;;4964295;28;20031;-75
2024/03/15 04:10:25;;;;;;;19.67;15.43;;;8.00;55.40;;;;;;4963329;28;20046;-73
2024/03/15 04:12:51;;;;;;;19.30;15.77;;;8.00;55.60;;;;;;4962738;28;20406;-75
2024/03/15 04:15:19;;;;;;;21.42;15.68;;;8.00;55.40;;;;;;4960292;28;20042;-74
2024/03/15 04:17:46;;;;;;;20.63;15.63;;;8.00;55.30;;;;;;4958882;28;20799;-74
2024/03/15 04:20:12;;;;;;;19.85;16.00;;;8.00;55.90;;;;;;4958763;28;20086;-74
2024/03/15 04:22:48;;;;;;;19.60;15.50;;;8.00;55.60;;;;;;4963319;28;20031;-74
2024/03/15 04:25:19;;;;;;;20.92;15.57;;;8.00;56.00;;;;;;4965146;28;20374;-74
2024/03/15 04:27:51;;;;;;;19.77;15.10;;;8.00;55.50;;;;;;4964966;28;20039;-73
2024/03/15 04:30:18;;;;;;;21.10;14.85;;;8.00;55.70;;;;;;4964885;28;20148;-73
2024/03/15 04:32:49;;;;;;;19.63;15.02;;;7.90;55.80;;;;;;4966711;28;20050;-74
2024/03/15 04:35:16;;;;;;;18.60;14.45;;;8.00;56.20;;;;;;4969747;28;20042;-73
2024/03/15 04:37:43;;;;;;;21.63;15.85;;;7.90;56.30;;;;;;4972136;28;20478;-74
2024/03/15 04:40:10;;;;;;;19.35;15.23;;;8.00;56.10;;;;;;4986924;28;20089;-74
2024/03/15 04:42:36;;;;;;;19.58;14.73;;;8.00;56.20;;;;;;4971026;28;20122;-74
2024/03/15 04:45:09;;;;;;;20.75;16.13;;;7.90;55.90;;;;;;4971976;28;20039;-73
2024/03/15 04:47:39;;;;;;;18.35;14.68;;;7.90;55.80;;;;;;4971726;28;20437;-73
2024/03/15 04:50:07;;;;;;;20.48;15.18;;;7.90;55.70;;;;;;4970892;28;20037;-72
2024/03/15 04:52:33;;;;;;;21.75;15.65;;;7.90;56.00;;;;;;4968997;28;20109;-74
2024/03/15 04:54:59;;;;;;;19.92;15.18;;;7.90;55.90;;;;;;4970584;28;20359;-72
2024/03/15 04:57:25;;;;;;;19.30;15.18;;;8.00;55.70;;;;;;4970526;28;20041;-72
2024/03/15 04:59:52;;;;;;;19.40;15.18;;;7.90;56.30;;;;;;4970895;28;20030;-73
2024/03/15 05:02:19;;;;;;;20.70;15.27;;;8.00;56.20;;;;;;4970846;28;20081;-73
2024/03/15 05:04:46;;;;;;;18.30;14.45;;;8.00;56.40;;;;;;4961259;28;20093;-73
2024/03/15 05:07:12;;;;;;;20.67;16.45;;;8.00;56.30;;;;;;4970558;28;20046;-74
2024/03/15 05:09:38;;;;;;;20.40;16.02;;;8.00;56.50;;;;;;4968908;28;21036;-73
2024/03/15 05:12:05;;;;;;;20.08;14.98;;;7.90;56.60;;;;;;4970292;28;20038;-73
2024/03/15 05:14:31;;;;;;;18.45;14.85;;;8.00;56.60;;;;;;4972139;28;20046;-74
2024/03/15 05:16:57;;;;;;;20.23;15.30;;;8.00;56.50;;;;;;4970177;28;20382;-76
2024/03/15 05:19:23;;;;;;;19.02;14.88;;;8.00;56.40;;;;;;4969133;28;20038;-74
2024/03/15 05:21:49;;;;;;;19.13;14.93;;;8.00;56.60;;;;;;4969568;28;20436;-74
2024/03/15 05:24:16;;;;;;;18.25;14.93;;;8.00;56.70;;;;;;4967174;28;20117;-74
2024/03/15 05:26:42;;;;;;;20.38;15.80;;;8.00;56.70;;;;;;4966903;28;20064;-74
2024/03/15 05:29:09;;;;;;;18.02;14.55;;;8.00;56.50;;;;;;4968345;28;20129;-74
2024/03/15 05:31:35;;;;;;;18.27;15.05;;;8.10;56.50;;;;;;4962959;28;20423;-74
2024/03/15 05:34:02;;;;;;;18.88;14.88;;;8.10;56.60;;;;;;4963821;28;20502;-74
2024/03/15 05:36:28;;;;;;;19.63;14.40;;;8.10;56.60;;;;;;4965206;28;20034;-75
2024/03/15 05:38:54;;;;;;;18.65;14.55;;;8.10;56.50;;;;;;4963325;28;20035;-74
2024/03/15 05:41:20;;;;;;;21.77;14.45;;;8.10;56.50;;;;;;4962392;28;20386;-74
2024/03/15 05:43:46;;;;;;;19.85;14.95;;;8.10;56.50;;;;;;4961937;28;20646;-74
2024/03/15 05:46:13;;;;;;;18.98;14.38;;;8.20;56.60;;;;;;4964640;28;20031;-75
2024/03/15 05:48:39;;;;;;;18.05;14.30;;;8.20;56.80;;;;;;4949093;28;20042;-75
2024/03/15 05:51:06;;;;;;;17.33;13.95;;;8.30;56.90;;;;;;4966897;28;20041;-75
2024/03/15 05:53:33;;;;;;;16.85;12.38;;;8.40;56.90;;;;;;4965849;28;20473;-75
2024/03/15 05:55:59;;;;;;;15.75;13.13;;;8.40;56.90;;;;;;4965803;28;20039;-75
2024/03/15 05:58:25;;;;;;;16.30;11.70;;;8.50;57.10;;;;;;4966703;28;20150;-75
2024/03/15 06:00:50;;;;;;;12.98;11.27;;;8.60;57.20;;;;;;4966183;28;20042;-75
2024/03/15 06:03:17;;;;;;;13.35;11.77;;;8.70;57.20;;;;;;4968010;28;20118;-74
2024/03/15 06:05:44;;;;;;;13.52;10.90;;;8.80;57.30;;;;;;4966315;28;20041;-75
2024/03/15 06:08:10;;;;;;;13.93;10.00;;;8.90;59.70;;;;;;4967106;28;20077;-74
2024/03/15 06:10:39;;;;;;;14.60;9.35;;;9.00;61.60;;;;;;4966174;28;20391;-75
2024/03/15 06:13:05;;;;;;;10.80;9.45;;;9.10;62.60;;;;;;4965786;28;20081;-74
2024/03/15 06:15:32;;;;;;;14.57;9.90;;;9.30;63.30;;;;;;4964726;28;20031;-73
2024/03/15 06:17:58;;;;;;;13.55;10.20;;;9.40;63.70;;;;;;4964980;28;20066;-75
2024/03/15 06:20:24;;;;;;;11.60;9.50;;;9.50;63.90;;;;;;4966343;28;20043;-75
2024/03/15 06:22:50;;;;;;;12.48;9.98;;;9.70;64.20;;;;;;4964001;28;20031;-75
2024/03/15 06:25:16;;;;;;;12.07;9.55;;;9.90;64.30;;;;;;4961728;28;20039;-75
2024/03/15 06:27:44;;;;;;;13.55;10.40;;;10.00;64.30;;;;;;4964910;28;20035;-75
2024/03/15 06:30:12;;;;;;;12.07;10.27;;;10.20;64.10;;;;;;4962502;28;20101;-75
2024/03/15 06:32:39;;;;;;;12.60;10.30;;;10.40;63.90;;;;;;4961386;28;20038;-75
2024/03/15 06:35:27;;;;;;;12.75;10.20;;;10.50;63.50;;;;;;4964036;28;20035;-77
2024/03/15 06:37:57;;;;;;;12.20;10.07;;;10.70;63.30;;;;;;4959502;28;20069;-76
2024/03/15 06:40:45;;;;;;;13.70;9.27;;;10.90;63.00;;;;;;4963003;28;20039;-75
2024/03/15 06:43:14;;;;;;;12.05;9.95;;;11.00;62.70;;;;;;4961861;28;20034;-74
2024/03/15 06:48:22;;;;;;;10.48;9.25;;;11.40;62.20;;;;;;4961076;28;20034;-74
2024/03/15 06:53:35;;;;;;;7.78;6.78;;;11.60;61.40;;;;;;4964428;28;20055;-75
2024/03/15 06:56:02;;;;;;;9.00;6.72;;;11.70;61.10;;;;;;4971032;28;20173;-74
2024/03/15 06:58:28;;;;;;;8.23;7.00;;;11.80;60.80;;;;;;4977855;28;20466;-75
2024/03/15 07:00:54;;;;;;;7.35;6.55;;;11.80;60.50;;;;;;4978962;28;20045;-74
2024/03/15 07:03:20;;;;;;;8.98;7.60;;;12.00;60.30;;;;;;4980153;28;20030;-75
2024/03/15 07:05:46;;;;;;;8.02;6.72;;;12.00;60.10;;;;;;4976732;28;20049;-74
2024/03/15 07:08:14;;;;;;;9.13;7.97;;;12.10;59.80;;;;;;4976150;28;20038;-76
2024/03/15 07:10:41;;;;;;;9.88;7.90;;;12.20;59.70;;;;;;4961422;28;20035;-75
2024/03/15 07:13:09;;;;;;;9.32;7.68;;;12.20;59.40;;;;;;4975953;28;20374;-75
2024/03/15 07:15:36;;;;;;;10.77;8.48;;;12.30;59.30;;;;;;4976946;28;20031;-75
2024/03/15 07:18:04;;;;;;;10.02;8.18;;;12.40;59.10;;;;;;4964043;28;20053;-75
2024/03/15 07:20:32;;;;;;;8.73;7.82;;;12.40;58.90;;;;;;4972529;28;20401;-75
2024/03/15 07:22:58;;;;;;;8.93;7.97;;;12.50;58.80;;;;;;4966252;28;20421;-74
2024/03/15 07:25:24;;;;;;;8.40;7.55;;;12.60;58.70;;;;;;4962833;28;20507;-74
2024/03/15 07:27:56;;;;;;;7.40;6.57;;;12.70;58.70;;;;;;4961159;28;20031;-74
2024/03/15 07:30:22;;;;;;;7.53;6.72;;;12.70;58.70;;;;;;4961386;28;20111;-74
2024/03/15 07:32:51;;;;;;;8.38;6.55;;;12.80;58.60;;;;;;4963681;28;20137;-74
2024/03/15 07:35:18;;;;;;;9.32;7.10;;;12.90;58.50;;;;;;4988453;28;20038;-74
2024/03/15 07:37:46;;;;;;;7.68;6.75;;;13.00;58.40;;;;;;4977055;28;20041;-74
2024/03/15 07:40:17;;;;;;;8.55;7.15;;;13.00;58.40;;;;;;4973128;28;20034;-74
2024/03/15 07:42:45;;;;;;;7.18;6.10;;;13.10;58.30;;;;;;4977096;28;20035;-73
2024/03/15 07:45:11;;;;;;;8.25;6.53;;;13.20;58.20;;;;;;4978051;28;20031;-73
2024/03/15 07:47:37;;;;;;;7.28;6.57;;;13.20;58.00;;;;;;4981068;28;20077;-73
2024/03/15 07:50:04;;;;;;;6.93;6.10;;;13.30;57.90;;;;;;4974897;28;20026;-73
2024/03/15 07:52:31;;;;;;;7.38;6.38;;;13.30;57.80;;;;;;4977399;28;20034;-73
2024/03/15 07:54:58;;;;;;;8.05;6.82;;;13.40;57.70;;;;;;4973304;28;20551;-74
2024/03/15 07:57:24;;;;;;;7.90;6.40;;;13.50;57.70;;;;;;4974570;28;20039;-74
2024/03/15 07:59:50;;;;;;;7.93;6.82;;;13.50;57.50;;;;;;4971888;28;20461;-74
2024/03/15 08:02:16;;;;;;;8.35;7.13;;;13.60;57.40;;;;;;4974227;28;20039;-73
2024/03/15 08:04:47;;;;;;;7.40;6.10;;;13.60;57.40;;;;;;4960840;28;20437;-73
2024/03/15 08:07:14;;;;;;;8.73;7.00;;;13.70;57.30;;;;;;4973712;28;20130;-73
2024/03/15 08:09:40;;;;;;;8.85;7.00;;;13.70;57.10;;;;;;4971111;28;20093;-74
2024/03/15 08:12:07;;;;;;;6.97;6.28;;;13.80;57.00;;;;;;4977863;28;20121;-71
2024/03/15 08:14:36;;;;;;;9.13;6.72;;;13.90;56.80;;;;;;4976980;28;20042;-74
2024/03/15 08:17:06;;;;;;;8.55;6.97;;;13.90;56.70;;;;;;4978722;28;20050;-73
2024/03/15 08:19:32;;;;;;;9.10;6.85;;;14.00;56.50;;;;;;4976828;28;20105;-72
2024/03/15 08:21:59;;;;;;;7.72;6.90;;;14.00;56.30;;;;;;4979284;28;20141;-73
2024/03/15 08:24:26;;;;;;;8.15;6.65;;;14.10;56.20;;;;;;4973151;28;20481;-74
2024/03/15 08:26:53;;;;;;;7.50;6.70;;;14.10;56.00;;;;;;4979393;28;20034;-74
2024/03/15 08:29:21;;;;;;;7.60;6.22;;;14.10;55.90;;;;;;4973197;28;20034;-76
2024/03/15 08:31:47;;;;;;;8.90;7.68;;;14.20;55.80;;;;;;4974914;28;20093;-75
2024/03/15 08:34:15;;;;;;;9.35;6.60;;;14.20;55.50;;;;;;4976117;28;20112;-74
2024/03/15 08:36:41;;;;;;;10.38;6.57;;;14.30;57.10;;;;;;4968426;28;20059;-74
2024/03/15 08:39:15;;;;;;;8.00;5.72;;;14.40;58.20;;;;;;4960839;28;20081;-74
2024/03/15 08:41:43;;;;;;;8.43;5.57;;;14.50;58.80;;;;;;4963153;28;20046;-75
2024/03/15 08:44:10;;;;;;;7.47;5.70;;;14.70;59.10;;;;;;4965630;28;20070;-74
2024/03/15 08:46:36;;;;;;;7.13;5.60;;;14.80;59.20;;;;;;4976197;28;21003;-74
2024/03/15 08:49:02;;;;;;;7.75;5.82;;;14.90;59.00;;;;;;4964010;28;20067;-75
2024/03/15 08:51:28;;;;;;;6.78;5.80;;;15.00;58.80;;;;;;4962018;28;20536;-74
2024/03/15 08:53:54;;;;;;;8.15;5.75;;;15.10;58.50;;;;;;4962584;28;20066;-73
2024/03/15 08:56:21;;;;;;;8.10;5.82;;;15.20;58.20;;;;;;4963974;28;20045;-75
2024/03/15 08:58:49;;;;;;;6.90;5.63;;;15.30;58.00;;;;;;4960153;28;20522;-74
2024/03/15 09:01:18;;;;;;;9.07;5.75;;;15.40;57.80;;;;;;4961880;28;20063;-73
2024/03/15 09:03:47;;;;;;;6.68;5.63;;;15.40;57.50;;;;;;4961061;28;20070;-74
2024/03/15 09:06:13;;;;;;;6.53;5.57;;;15.60;57.30;;;;;;4963232;28;20453;-76
2024/03/15 09:08:42;;;;;;;8.13;6.50;;;15.70;57.20;;;;;;4962154;28;20030;-75
2024/03/15 09:11:08;;;;;;;5.70;5.07;;;15.70;56.90;;;;;;4961735;28;20537;-75
2024/03/15 09:13:34;;;;;;;7.20;4.88;;;15.80;56.80;;;;;;4962002;28;20046;-75
2024/03/15 09:16:01;;;;;;;7.25;4.68;;;15.90;56.60;;;;;;4962031;28;20389;-74
2024/03/15 09:18:28;;;;;;;6.20;5.10;;;15.90;56.40;;;;;;4964373;28;20049;-75
2024/03/15 09:20:54;;;;;;;7.75;5.78;;;16.00;56.30;;;;;;4964604;28;20035;-75
2024/03/15 09:23:21;;;;;;;6.43;4.80;;;16.00;56.00;;;;;;4965477;28;20039;-76
2024/03/15 09:25:48;;;;;;;7.32;5.20;;;16.10;55.90;;;;;;4965816;28;20430;-75
2024/03/15 09:28:14;;;;;;;6.78;5.25;;;16.10;55.70;;;;;;4968847;28;20042;-73
2024/03/15 09:30:47;;;;;;;5.65;4.97;;;16.20;55.50;;;;;;4962833;28;20039;-73
2024/03/15 09:33:13;;;;;;;5.95;5.32;;;16.20;55.40;;;;;;4965415;28;20041;-75
2024/03/15 09:35:44;;;;;;;6.35;5.05;;;16.30;55.20;;;;;;4966292;28;20476;-75
2024/03/15 09:38:14;;;;;;;7.57;5.07;;;16.30;55.00;;;;;;4967750;28;20058;-75
2024/03/15 09:40:40;;;;;;;7.65;5.78;;;16.30;54.90;;;;;;4965984;28;20129;-75
2024/03/15 09:43:14;;;;;;;6.28;5.10;;;16.40;54.70;;;;;;4970032;28;20030;-75
2024/03/15 09:45:41;;;;;;;7.38;4.93;;;16.40;54.60;;;;;;4966733;28;20035;-74
2024/03/15 09:48:11;;;;;;;6.25;4.95;;;16.40;54.40;;;;;;4966019;28;20027;-74
2024/03/15 09:50:40;;;;;;;5.90;5.30;;;16.50;54.30;;;;;;4967432;28;20045;-75
2024/03/15 09:53:09;;;;;;;7.60;5.32;;;16.50;54.20;;;;;;4967130;28;20035;-74
2024/03/15 09:55:36;;;;;;;5.93;5.00;;;16.50;54.00;;;;;;4965909;28;20101;-74
2024/03/15 09:58:07;;;;;;;5.50;4.43;;;16.60;53.90;;;;;;4979939;28;20035;-73
2024/03/15 10:00:33;;;;;;;6.55;5.05;;;16.60;53.80;;;;;;4965011;28;20038;-74
2024/03/15 10:02:59;;;;;;;5.90;4.80;;;16.70;53.70;;;;;;4965022;28;20027;-75
2024/03/15 10:05:25;;;;;;;7.38;5.00;;;16.70;53.50;;;;;;4964705;28;20053;-75
2024/03/15 10:07:52;;;;;;;5.10;4.60;;;16.70;53.30;;;;;;4964903;28;20040;-75
2024/03/15 10:10:19;;;;;;;5.20;4.68;;;16.80;53.20;;;;;;4963446;28;20046;-74
2024/03/15 10:12:49;;;;;;;6.18;5.10;;;16.80;53.00;;;;;;4967312;28;20043;-74
2024/03/15 10:15:23;;;;;;;6.70;4.50;;;16.80;52.90;;;;;;4964100;28;20039;-74
2024/03/15 10:17:53;;;;;;;6.38;4.60;;;16.80;52.80;;;;;;4966054;28;20137;-74
2024/03/15 10:20:24;;;;;;;7.18;5.30;;;16.80;52.70;;;;;;4965392;28;20038;-74
2024/03/15 10:22:58;;;;;;;5.10;4.60;;;16.80;52.70;;;;;;4964635;28;20498;-74
2024/03/15 10:25:25;;;;;;;6.45;5.20;;;16.90;52.60;;;;;;4963945;28;20039;-74
2024/03/15 10:27:56;;;;;;;7.47;5.00;;;16.90;52.60;;;;;;4966555;28;20038;-73
2024/03/15 10:30:28;;;;;;;5.88;5.00;;;16.90;52.50;;;;;;4964526;28;20680;-76
2024/03/15 10:32:59;;;;;;;7.07;5.18;;;16.90;52.50;;;;;;4967015;28;20042;-74
2024/03/15 10:35:28;;;;;;;7.50;5.50;;;16.90;52.40;;;;;;4964230;28;20039;-74
2024/03/15 10:37:54;;;;;;;5.65;5.05;;;16.90;52.30;;;;;;4964175;28;20501;-74
2024/03/15 10:40:30;;;;;;;7.32;5.63;;;17.00;52.40;;;;;;4962109;28;20097;-76
2024/03/15 10:43:03;;;;;;;6.70;5.20;;;17.00;52.30;;;;;;4963462;28;20046;-74
2024/03/15 10:48:18;;;;;;;7.43;5.32;;;17.00;52.20;;;;;;4964056;28;20042;-74
2024/03/15 10:50:45;;;;;;;6.43;5.50;;;17.00;52.20;;;;;;4976427;28;20062;-74
2024/03/15 10:53:16;;;;;;;8.15;5.22;;;17.00;52.10;;;;;;4961380;28;20411;-74
2024/03/15 10:55:45;;;;;;;6.65;5.50;;;17.00;52.00;;;;;;4961719;28;20394;-74
2024/03/15 10:58:11;;;;;;;9.07;5.00;;;17.00;52.00;;;;;;4961924;28;20509;-75
2024/03/15 11:00:39;;;;;;;6.60;5.68;;;17.00;51.90;;;;;;4962841;28;20034;-74
2024/03/15 11:03:25;;;;;;;8.45;5.38;;;17.10;51.90;;;;;;4960241;28;20031;-74
2024/03/15 11:05:51;;;;;;;5.68;5.05;;;17.10;51.90;;;;;;4963787;28;20038;-74
2024/03/15 11:08:21;;;;;;;7.20;5.05;;;17.10;51.80;;;;;;4963207;28;20090;-74
2024/03/15 11:11:05;;;;;;;7.88;6.05;;;17.10;51.80;;;;;;4962432;28;20125;-74
2024/03/15 11:13:39;;;;;;;8.20;5.70;;;17.10;51.70;;;;;;4927614;28;20038;-75
2024/03/15 11:16:20;;;;;;;6.70;5.70;;;17.10;51.70;;;;;;4963457;28;20042;-75
2024/03/15 11:18:46;;;;;;;6.45;5.80;;;17.10;51.60;;;;;;4961008;28;20039;-74
2024/03/15 11:21:21;;;;;;;7.93;5.90;;;17.00;51.50;;;;;;4961360;28;20053;-74
2024/03/15 11:23:47;;;;;;;;;;;17.10;51.50;;;;;;4965785;28;20159;-73
2024/03/15 11:26:18;;;;;;;;;;;17.10;51.50;;;;;;4966065;28;20471;-74
2024/03/15 11:28:52;;;;;;;7.15;5.65;;;17.10;51.50;;;;;;4978205;28;19927;-75
2024/03/15 11:31:22;;;;;;;7.72;5.85;;;17.10;51.40;;;;;;4960087;28;20419;-74
2024/03/15 11:33:53;;;;;;;7.82;5.90;;;17.10;51.30;;;;;;4963456;28;20041;-74
2024/03/15 11:36:20;;;;;;;8.70;5.90;;;17.10;51.30;;;;;;4961829;28;20035;-74
2024/03/15 11:38:46;;;;;;;7.18;5.70;;;17.10;51.30;;;;;;4961660;28;20518;-75
2024/03/15 11:41:13;;;;;;;8.48;6.68;;;17.10;51.30;;;;;;4961356;28;20207;-75
2024/03/15 11:43:39;;;;;;;9.57;8.10;;;17.00;51.10;;;;;;4961990;28;20560;-75
2024/03/15 11:46:08;;;;;;;10.70;8.13;;;16.90;50.50;;;;;;4961863;28;20070;-75
2024/03/15 11:48:34;;;;;;;13.27;7.82;;;16.80;50.30;;;;;;4961112;28;20478;-76
2024/03/15 11:51:01;;;;;;;11.38;8.75;;;16.80;49.90;;;;;;4963512;28;20627;-75
2024/03/15 11:53:27;;;;;;;13.32;9.05;;;16.70;49.90;;;;;;4961877;28;20047;-75
2024/03/15 11:55:53;;;;;;;11.10;8.40;;;16.60;49.90;;;;;;4963010;28;20094;-75
2024/03/15 11:58:21;;;;;;;10.23;8.07;;;16.60;49.90;;;;;;4963492;28;20034;-75
2024/03/15 12:00:51;;;;;;;13.20;8.82;;;16.60;49.90;;;;;;4965140;28;20045;-75
2024/03/15 12:03:19;;;;;;;11.88;8.60;;;16.50;50.00;;;;;;4960846;28;20130;-75
2024/03/15 12:05:46;;;;;;;10.80;8.73;;;16.40;50.00;;;;;;4962448;28;20058;-76
2024/03/15 12:08:18;;;;;;;10.18;8.25;;;16.40;50.00;;;;;;4965062;28;20034;-76
2024/03/15 12:10:44;;;;;;;12.20;8.98;;;16.30;50.10;;;;;;4965410;28;20055;-75
2024/03/15 12:13:20;;;;;;;13.20;8.75;;;16.30;50.20;;;;;;4959676;28;20036;-75
2024/03/15 12:15:47;;;;;;;11.15;8.15;;;16.20;50.20;;;;;;4961760;28;20035;-73
2024/03/15 12:18:15;;;;;;;12.32;8.65;;;16.20;50.40;;;;;;4962925;28;20066;-74
2024/03/15 12:20:45;;;;;;;11.45;8.98;;;16.10;50.50;;;;;;4958487;28;20031;-73
2024/03/15 12:23:13;;;;;;;12.15;8.75;;;16.10;50.40;;;;;;4958886;28;20070;-73
2024/03/15 12:25:39;;;;;;;12.70;8.45;;;16.00;50.50;;;;;;4957833;28;20035;-73
2024/03/15 12:28:06;;;;;;;14.88;9.13;;;16.00;50.50;;;;;;4961273;28;20558;-73
2024/03/15 12:30:33;;;;;;;11.48;9.02;;;15.90;50.60;;;;;;4957065;28;20177;-73
2024/03/15 12:32:59;;;;;;;12.48;8.52;;;15.90;50.60;;;;;;4958763;28;20041;-72
2024/03/15 12:35:25;;;;;;;12.00;9.45;;;15.80;50.70;;;;;;4957117;28;20031;-75
2024/03/15 12:37:54;;;;;;;11.23;9.13;;;15.80;50.60;;;;;;4959249;28;20038;-74
2024/03/15 12:40:20;;;;;;;12.70;8.75;;;15.80;50.60;;;;;;4958029;28;20056;-74
2024/03/15 12:42:46;;;;;;;10.07;8.07;;;15.70;50.70;;;;;;4961582;28;20034;-72
2024/03/15 12:45:12;;;;;;;14.20;8.95;;;15.70;50.60;;;;;;4958984;28;20097;-74
2024/03/15 12:47:41;;;;;;;11.10;9.45;;;15.60;50.70;;;;;;4958451;28;20175;-72
2024/03/15 12:50:20;;;;;;;14.45;9.40;;;15.60;50.70;;;;;;4957427;28;20039;-72